Latest Weather Observations for Ferny Creek

IDV60901

Issued at 6:11 pm EST Thursday 9 April 2020 (issued every 10 minutes, with the page automatically refreshed every 10 minutes)

About weather observations | Map of Melbourne area stations | Latest observations for Melbourne area | Other Formats
Station Details ID: 086266 Name: FERNY CREEK Lat: -37.87 Lon: 145.35 Height: 512.9 m
Data from the previous 72 hours. | See also: Recent months at Ferny Creek
Date/Time
EST
Temp
°C
App
Temp
°C
Dew
Point
°C
Rel
Hum
%
Delta-T
°C
Wind Press
QNH
hPa
Press
MSL
hPa
Rain since
9am
mm
Dir  Spd
km/h
Gust
km/h
Spd
kts
Gust
kts
09/06:00pm 14.6 15.1 11.6 82 1.6 CALM 0 4 0 2 1023.9 1023.5 0.0
09/05:30pm 15.3 15.5 11.7 79 2.0 SE 2 6 1 3 1023.6 1023.1 0.0
09/05:00pm 16.0 15.9 10.7 71 2.9 SSE 2 6 1 3 1023.7 1023.2 0.0
09/04:30pm 17.1 16.9 10.5 65 3.6 SE 2 4 1 2 1024.0 1023.6 0.0
09/04:00pm 18.1 17.7 9.7 58 4.5 SSE 2 7 1 4 1024.0 1023.6 0.0
09/03:30pm 18.6 17.9 10.2 58 4.6 SSE 4 7 2 4 1024.2 1023.8 0.0
09/03:00pm 18.6 17.5 9.9 57 4.7 SSW 6 11 3 6 1024.2 1023.8 0.0
09/02:30pm 18.0 17.5 10.6 62 4.1 SSW 4 7 2 4 1024.3 1023.9 0.0
09/02:00pm 17.9 17.8 10.8 63 3.9 SSW 2 6 1 3 1024.5 1024.1 0.0
09/01:30pm 16.7 17.2 11.6 72 2.8 CALM 0 2 0 1 1024.9 1024.5 0.0
09/01:00pm 16.3 15.8 10.6 69 3.1 SSE 4 6 2 3 1025.5 1025.1 0.0
09/12:30pm 17.8 17.8 12.3 70 3.1 S 4 6 2 3 1025.9 1025.5 0.0
09/12:00pm 18.4 18.0 11.2 63 4.0 SW 4 7 2 4 1026.4 1026.0 0.0
09/11:30am 18.9 18.7 11.7 63 4.1 ESE 4 7 2 4 1026.8 1026.4 0.0
09/11:00am 17.8 16.5 9.2 57 4.6 E 6 7 3 4 1026.8 1026.4 0.0
09/10:30am 16.6 15.6 8.8 60 4.1 E 4 6 2 3 1027.0 1026.6 0.0
09/10:00am 16.6 15.3 9.1 61 4.0 ENE 6 7 3 4 1027.3 1026.9 0.0
09/09:30am 16.1 14.6 8.6 61 3.9 ENE 6 9 3 5 1027.3 1026.9 0.0
09/09:00am 15.7 14.0 7.5 58 4.2 E 6 13 3 7 1027.4 1027.0 0.0
09/08:30am 14.7 12.9 7.3 61 3.7 ENE 6 7 3 4 1027.4 1027.0 0.0
09/08:00am 13.9 12.1 7.2 64 3.3 ENE 6 11 3 6 1027.0 1026.6 0.0
09/07:30am 12.9 10.9 7.1 68 2.9 ENE 7 9 4 5 1026.9 1026.5 0.0
09/07:00am 11.5 9.5 6.2 70 2.5 ENE 6 7 3 4 1026.7 1026.3 0.0
09/06:30am 11.4 9.7 6.1 70 2.6 NE 4 7 2 4 1026.7 1026.3 0.0
09/06:00am 11.3 9.2 6.0 70 2.5 ENE 6 13 3 7 1026.7 1026.3 0.0
09/05:30am 11.0 8.9 5.7 70 2.5 ENE 6 13 3 7 1026.5 1026.1 0.0
09/05:00am 11.2 9.1 5.7 69 2.6 E 6 13 3 7 1026.4 1026.0 0.0
09/04:30am 11.0 8.3 5.7 70 2.5 E 9 13 5 7 1026.4 1026.0 0.0
09/04:00am 10.8 8.6 6.0 72 2.3 ENE 7 15 4 8 1026.2 1025.8 0.0
09/03:30am 10.9 8.3 5.9 71 2.4 E 9 13 5 7 1026.2 1025.8 0.0
09/03:00am 10.6 8.0 6.0 73 2.2 E 9 15 5 8 1026.3 1025.9 0.0
09/02:30am 10.6 8.4 6.2 74 2.1 E 7 13 4 7 1026.4 1026.0 0.0
09/02:00am 10.1 7.2 6.4 78 1.8 E 11 17 6 9 1026.6 1026.2 0.0
09/01:30am 9.9 7.7 6.4 79 1.7 E 7 13 4 7 1026.5 1026.1 0.0
09/01:00am 9.6 7.6 6.9 83 1.3 E 7 17 4 9 1026.3 1025.9 0.0
09/12:30am 9.6 7.2 7.2 85 1.2 E 9 13 5 7 1026.0 1025.6 0.0
09/12:00am 9.1 7.1 7.2 88 0.9 E 7 13 4 7 1026.0 1025.6 0.0
 
Date/Time
EST
Temp
°C
App
Temp
°C
Dew
Point
°C
Rel
Hum
%
Delta-T
°C
Wind Press
QNH
hPa
Press
MSL
hPa
Rain since
9am
mm
Dir  Spd
km/h
Gust
km/h
Spd
kts
Gust
kts
08/11:30pm 9.2 7.5 7.5 89 0.8 E 6 9 3 5 1026.2 1025.8 0.0
08/11:00pm 9.5 6.9 7.6 88 0.9 E 11 20 6 11 1026.0 1025.6 0.0
08/10:30pm 9.7 6.7 7.6 87 1.0 ENE 13 22 7 12 1025.9 1025.5 0.0
08/10:00pm 10.0 6.3 7.8 86 1.1 E 17 26 9 14 1025.6 1025.2 0.0
08/09:30pm 10.5 6.7 7.4 81 1.5 E 17 30 9 16 1025.5 1025.1 0.0
08/09:00pm 10.5 6.1 7.4 81 1.5 E 20 30 11 16 1025.4 1024.9 0.0
08/08:30pm 11.0 6.2 7.3 78 1.8 E 22 39 12 21 1025.0 1024.6 0.0
08/08:00pm 10.9 6.5 7.4 79 1.7 E 20 28 11 15 1025.0 1024.6 0.0
08/07:30pm 11.4 6.6 7.3 76 2.0 E 22 33 12 18 1024.9 1024.5 0.0
08/07:00pm 11.6 7.3 7.1 74 2.2 E 19 30 10 16 1024.8 1024.4 0.0
08/06:30pm 11.8 7.6 7.3 74 2.2 E 19 33 10 18 1024.6 1024.2 0.0
08/06:00pm 12.0 8.6 7.5 74 2.2 ESE 15 30 8 16 1024.5 1024.1 0.0
08/05:30pm 12.4 9.3 7.3 71 2.5 ESE 13 22 7 12 1024.3 1023.9 0.0
08/05:00pm 12.7 10.2 8.0 73 2.4 ESE 11 24 6 13 1024.1 1023.7 0.0
08/04:30pm 13.3 9.9 7.5 68 2.9 ESE 15 24 8 13 1024.1 1023.7 0.0
08/04:00pm 13.8 10.9 8.2 69 2.9 ESE 13 24 7 13 1024.1 1023.7 0.0
08/03:30pm 13.9 10.2 8.1 68 3.0 E 17 28 9 15 1023.9 1023.5 0.0
08/03:00pm 14.4 11.6 8.4 67 3.1 ESE 13 20 7 11 1023.9 1023.5 0.0
08/02:30pm 14.5 11.7 8.5 67 3.1 ESE 13 24 7 13 1023.7 1023.2 0.0
08/02:00pm 13.7 11.2 9.6 76 2.1 ESE 13 22 7 12 1023.7 1023.2 0.0
08/01:30pm 12.8 10.2 9.4 80 1.8 ESE 13 20 7 11 1023.9 1023.5 0.0
08/01:00pm 12.5 10.3 9.3 81 1.7 ESE 11 20 6 11 1024.1 1023.7 0.0
08/12:30pm 12.9 10.9 10.3 84 1.4 ESE 11 22 6 12 1024.4 1024.0 0.0
08/12:00pm 12.4 10.8 10.1 86 1.2 ESE 9 20 5 11 1024.8 1024.4 0.0
08/11:30am 12.4 11.1 10.1 86 1.2 ESE 7 11 4 6 1024.9 1024.5 0.0
08/11:00am 11.7 10.1 8.7 82 1.5 SE 7 13 4 7 1024.9 1024.5 0.0
08/10:30am 11.7 10.7 10.9 95 0.4 ESE 7 11 4 6 1025.0 1024.6 0.0
08/10:00am 11.4 10.1 11.4 100 0.0 ESE 9 15 5 8 1024.9 1024.5 0.0
08/09:30am 10.1 8.8 10.1 100 0.0 ESE 7 15 4 8 1024.8 1024.4 0.0
08/09:00am 10.0 8.9 10.0 100 0.0 SE 6 15 3 8 1024.7 1024.3 1.2
08/08:30am 9.5 7.7 9.5 100 0.0 ESE 9 17 5 9 1024.3 1023.9 1.2
08/08:00am 9.2 7.3 9.2 100 0.0 ESE 9 17 5 9 1024.0 1023.6 1.2
08/07:30am 9.1 7.6 9.1 100 0.0 ESE 7 13 4 7 1023.5 1023.0 1.2
08/07:00am 9.0 7.6 9.0 100 0.0 ESE 6 9 3 5 1023.4 1022.9 1.2
08/06:30am 9.0 7.5 9.0 100 0.0 E 7 13 4 7 1022.9 1022.5 1.2
08/06:00am 8.9 7.9 8.9 100 0.0 ESE 4 9 2 5 1022.8 1022.4 0.8
08/05:30am 8.9 7.9 8.9 100 0.0 E 4 7 2 4 1022.6 1022.2 0.8
08/05:00am 8.9 7.3 8.8 99 0.0 ESE 7 11 4 6 1022.4 1022.0 0.6
08/04:30am 8.9 7.5 8.8 99 0.1 ESE 6 9 3 5 1022.3 1021.9 0.4
08/04:00am 8.9 7.5 8.8 99 0.0 ESE 6 9 3 5 1022.1 1021.7 0.2
08/03:30am 8.8 7.3 8.5 98 0.1 ESE 6 9 3 5 1022.0 1021.5 0.2
08/03:00am 8.7 7.0 8.4 98 0.1 ESE 7 15 4 8 1022.0 1021.5 0.2
08/02:30am 8.5 6.9 8.2 98 0.1 ESE 6 9 3 5 1022.3 1021.9 0.2
08/02:00am 8.4 6.8 8.1 98 0.1 ESE 6 7 3 4 1022.8 1022.4 0.2
08/01:30am 8.4 6.8 8.1 98 0.1 ESE 6 9 3 5 1022.8 1022.4 0.2
08/01:00am 8.3 6.7 8.2 99 0.0 ESE 6 9 3 5 1022.8 1022.4 0.2
08/12:30am 8.5 7.0 8.4 99 0.0 E 6 7 3 4 1022.8 1022.4 0.2
08/12:00am 8.6 7.1 8.5 99 0.0 ESE 6 11 3 6 1022.9 1022.5 0.2
 
Date/Time
EST
Temp
°C
App
Temp
°C
Dew
Point
°C
Rel
Hum
%
Delta-T
°C
Wind Press
QNH
hPa
Press
MSL
hPa
Rain since
9am
mm
Dir  Spd
km/h
Gust
km/h
Spd
kts
Gust
kts
07/11:30pm 8.5 7.4 8.4 99 0.0 ESE 4 9 2 5 1023.1 1022.6 0.2
07/11:00pm 8.7 7.2 8.6 99 0.0 ESE 6 9 3 5 1023.3 1022.8 0.2
07/10:30pm 8.8 7.4 8.7 99 0.1 ESE 6 9 3 5 1023.4 1022.9 0.2
07/10:00pm 8.6 7.1 8.3 98 0.1 ESE 6 9 3 5 1023.4 1022.9 0.2
07/09:30pm 8.7 7.2 8.4 98 0.1 E 6 11 3 6 1023.4 1022.9 0.2
07/09:00pm 8.7 7.6 8.3 97 0.2 ESE 4 7 2 4 1023.3 1022.8 0.2
07/08:30pm 8.6 7.4 8.0 96 0.3 ESE 4 11 2 6 1023.4 1022.9 0.2
07/08:00pm 8.3 7.0 7.5 95 0.4 ESE 4 6 2 3 1023.4 1022.9 0.2
07/07:30pm 8.6 7.3 7.8 95 0.4 ESE 4 7 2 4 1023.4 1022.9 0.2
07/07:00pm 9.0 7.8 8.1 94 0.4 SSE 4 13 2 7 1022.9 1022.5 0.2
07/06:30pm 9.2 7.6 8.0 92 0.6 SE 6 9 3 5 1022.7 1022.3 0.2
07/06:00pm 9.4 7.8 8.0 91 0.7 SE 6 11 3 6 1022.5 1022.1 0.2
07/05:30pm 9.6 8.4 7.9 89 0.8 SE 4 9 2 5 1022.2 1021.8 0.2
07/05:00pm 9.9 8.6 7.5 85 1.2 SE 4 7 2 4 1022.1 1021.7 0.2
07/04:30pm 10.5 9.1 7.2 80 1.6 SE 4 6 2 3 1022.1 1021.7 0.2
07/04:00pm 10.7 9.3 7.2 79 1.7 S 4 7 2 4 1022.3 1021.9 0.2
07/03:30pm 11.1 9.4 7.4 78 1.8 S 6 9 3 5 1022.4 1022.0 0.2
07/03:00pm 10.9 9.5 7.4 79 1.7 SSE 4 9 2 5 1022.5 1022.1 0.2
07/02:30pm 11.1 9.7 7.4 78 1.8 SSE 4 6 2 3 1022.7 1022.3 0.2
07/02:00pm 11.6 10.2 7.1 74 2.2 SSE 4 7 2 4 1022.6 1022.2 0.2
07/01:30pm 11.6 10.0 6.5 71 2.5 SSE 4 7 2 4 1022.9 1022.5 0.2
07/01:00pm 12.6 10.7 6.9 68 2.8 SSE 6 13 3 7 1023.2 1022.7 0.2
07/12:30pm 11.9 9.9 6.2 68 2.8 SE 6 11 3 6 1023.7 1023.2 0.2
07/12:00pm 11.5 9.5 6.4 71 2.5 SE 6 9 3 5 1024.0 1023.6 0.2
07/11:30am 12.1 10.8 7.8 75 2.2 ESE 4 7 2 4 1024.1 1023.7 0.2
07/11:00am 11.0 9.5 6.6 74 2.1 S 4 11 2 6 1024.2 1023.8 0.2
07/10:30am 11.3 9.4 6.6 73 2.3 ESE 6 9 3 5 1024.1 1023.7 0.0
07/10:00am 10.5 9.0 6.8 78 1.8 ESE 4 7 2 4 1024.2 1023.8 0.0
07/09:30am 10.5 9.2 7.6 82 1.4 ESE 4 6 2 3 1024.2 1023.8 0.0
07/09:00am 10.1 8.3 7.3 83 1.4 ENE 6 9 3 5 1024.1 1023.7 0.6
07/08:30am 9.9 8.2 7.7 86 1.1 E 6 9 3 5 1023.6 1023.1 0.6
07/08:00am 8.9 6.9 7.0 88 0.9 E 7 13 4 7 1023.5 1023.0 0.6
07/07:30am 8.5 6.7 7.0 90 0.7 ESE 6 7 3 4 1023.4 1022.9 0.6
07/07:00am 8.1 6.2 6.9 92 0.6 ESE 6 9 3 5 1022.9 1022.5 0.6
07/06:30am 7.5 5.6 6.8 95 0.3 ESE 6 9 3 5 1022.8 1022.4 0.6
07/06:00am 7.4 5.9 6.8 96 0.3 ESE 4 6 2 3 1022.8 1022.4 0.6
07/05:30am 7.6 6.5 7.0 96 0.3 E 2 4 1 2 1022.4 1022.0 0.6
07/05:00am 7.8 6.8 7.2 96 0.3 E 2 6 1 3 1022.6 1022.2 0.6
07/04:30am 7.8 6.4 7.1 95 0.3 ESE 4 7 2 4 1022.6 1022.2 0.6
07/04:00am 7.9 7.2 7.1 95 0.4 CALM 0 0 0 0 1022.5 1022.1 0.6
07/03:30am 8.2 7.2 7.3 94 0.4 ESE 2 4 1 2 1022.7 1022.3 0.6
07/03:00am 8.3 6.9 7.2 93 0.5 ESE 4 6 2 3 1022.8 1022.4 0.6
07/02:30am 8.5 7.8 7.0 90 0.7 CALM 0 4 0 2 1022.9 1022.5 0.6
07/02:00am 8.4 7.2 6.5 88 0.9 ESE 2 4 1 2 1023.1 1022.6 0.6
07/01:30am 8.4 7.6 6.5 88 0.9 CALM 0 2 0 1 1023.3 1022.8 0.6
07/01:00am 8.3 7.5 6.6 89 0.8 CALM 0 4 0 2 1023.4 1022.9 0.6
07/12:30am 8.3 7.5 6.4 88 0.9 CALM 0 0 0 0 1023.4 1022.9 0.6
07/12:00am 8.3 7.5 6.6 89 0.8 CALM 0 2 0 1 1023.4 1022.9 0.6
 
Date/Time
EST
Temp
°C
App
Temp
°C
Dew
Point
°C
Rel
Hum
%
Delta-T
°C
Wind Press
QNH
hPa
Press
MSL
hPa
Rain since
9am
mm
Dir  Spd
km/h
Gust
km/h
Spd
kts
Gust
kts
06/11:30pm 8.3 7.5 6.3 87 0.9 CALM 0 0 0 0 1023.5 1023.0 0.6
06/11:00pm 8.4 7.0 5.5 82 1.3 ESE 2 4 1 2 1023.6 1023.1 0.6
06/10:30pm 8.6 6.9 4.2 74 2.0 S 2 6 1 3 1023.7 1023.2 0.6
06/10:00pm 8.5 6.6 4.7 77 1.7 SSE 4 11 2 6 1023.7 1023.2 0.6
06/09:30pm 8.2 7.4 6.3 88 0.9 CALM 0 0 0 0 1023.8 1023.4 0.6
06/09:00pm 8.3 7.1 6.3 87 0.9 SE 2 4 1 2 1023.7 1023.2 0.6
06/08:30pm 8.5 7.3 6.6 88 0.9 ESE 2 2 1 1 1023.6 1023.1 0.6
06/08:00pm 8.6 7.8 6.7 88 0.9 CALM 0 0 0 0 1023.4 1022.9 0.6
06/07:30pm 8.7 7.2 6.8 88 0.9 SSE 4 7 2 4 1023.2 1022.7 0.6
06/07:00pm 8.8 8.1 7.1 89 0.8 CALM 0 0 0 0 1022.9 1022.5 0.6
06/06:30pm 9.1 7.7 7.1 87 1.0 SSW 4 9 2 5 1022.7 1022.3 0.6

Latest Capital City Observations: Canberra | Sydney | Melbourne | Brisbane | Adelaide | Perth | Hobart | Darwin

Other formats

Comma delimited format used in spreadsheet applications
http://www.bom.gov.au/fwo/IDV60901/IDV60901.94872.axf

JavaScript Object Notation format (JSON) in row-major order
http://www.bom.gov.au/fwo/IDV60901/IDV60901.94872.json

Data quality

Most of these data are generated automatically and are frequently updated. Quality checks on data are not normally performed. It is possible for incorrect values to appear. Refer to information at About Latest Weather Observations and please check the disclaimer before using these data.